Time;durP1;ratioP1;P1;durP2;ratioP2;P2;SDS_P1;SDS_P2;PMS_P1;PMS_P2;Temp;Humidity;BMP_temperature;BMP_pressure;BME280_temperature;BME280_humidity;BME280_pressure;Samples;Min_cycle;Max_cycle;Signal;HPM_P1;HPM_P2
2023/10/01 00:00:22;;;;;;;13.13;8.43;;;12.50;99.90;;;;;;5043076;28;20182;-29
2023/10/01 00:02:54;;;;;;;11.97;7.50;;;12.40;99.90;;;;;;5014339;28;20194;-30
2023/10/01 00:05:22;;;;;;;12.73;8.20;;;12.40;99.90;;;;;;5011827;28;20186;-29
2023/10/01 00:07:51;;;;;;;12.70;7.70;;;12.30;99.90;;;;;;5014969;28;20305;-30
2023/10/01 00:10:18;;;;;;;14.50;7.40;;;12.30;99.90;;;;;;5027656;28;20205;-30
2023/10/01 00:12:46;;;;;;;13.20;7.67;;;12.30;99.90;;;;;;5012070;28;20185;-30
2023/10/01 00:15:16;;;;;;;11.50;7.10;;;12.30;99.90;;;;;;5017176;28;20177;-30
2023/10/01 00:17:48;;;;;;;12.20;7.70;;;12.30;99.90;;;;;;5033714;28;20300;-30
2023/10/01 00:20:22;;;;;;;11.63;7.40;;;12.30;99.90;;;;;;5033793;28;20192;-30
2023/10/01 00:23:00;;;;;;;12.27;7.27;;;12.30;99.90;;;;;;5025482;28;20324;-31
2023/10/01 00:25:30;;;;;;;9.73;6.87;;;12.40;99.90;;;;;;5033486;28;20189;-30
2023/10/01 00:27:58;;;;;;;9.60;6.77;;;12.40;99.90;;;;;;5021418;28;20250;-30
2023/10/01 00:30:23;;;;;;;11.27;7.10;;;12.30;99.90;;;;;;5028187;28;20193;-30
2023/10/01 00:32:49;;;;;;;11.03;6.57;;;12.40;99.90;;;;;;5030444;28;20261;-30
2023/10/01 00:35:16;;;;;;;12.93;7.30;;;12.40;99.90;;;;;;5030478;28;20189;-30
2023/10/01 00:40:35;;;;;;;12.10;7.63;;;12.30;99.90;;;;;;4993667;28;20295;-28
2023/10/01 00:43:04;;;;;;;11.03;6.97;;;12.30;99.90;;;;;;4971564;28;20204;-28
2023/10/01 00:45:31;;;;;;;12.10;7.17;;;12.20;99.90;;;;;;4997510;28;20187;-28
2023/10/01 00:48:05;;;;;;;11.43;7.10;;;12.10;99.90;;;;;;4993549;28;20218;-28
2023/10/01 00:50:32;;;;;;;12.10;6.57;;;12.10;99.90;;;;;;4993103;28;20243;-28
2023/10/01 00:52:58;;;;;;;11.10;7.27;;;12.10;99.90;;;;;;4993558;28;20186;-27
2023/10/01 00:55:24;;;;;;;12.07;7.07;;;12.10;99.90;;;;;;5000560;28;20251;-27
2023/10/01 00:57:53;;;;;;;10.90;7.53;;;12.10;99.90;;;;;;5009146;28;20195;-27
2023/10/01 01:00:20;;;;;;;10.70;7.03;;;12.10;99.90;;;;;;5009527;28;20685;-27
2023/10/01 01:02:56;;;;;;;12.00;7.23;;;12.10;99.90;;;;;;4992549;28;20280;-28
2023/10/01 01:05:36;;;;;;;12.53;7.20;;;12.10;99.90;;;;;;5003691;28;20196;-28
2023/10/01 01:08:07;;;;;;;12.13;7.67;;;12.10;99.90;;;;;;5023947;28;20649;-27
2023/10/01 01:10:39;;;;;;;12.67;7.03;;;12.10;99.90;;;;;;4996241;28;20214;-26
2023/10/01 01:13:06;;;;;;;12.60;7.73;;;12.00;99.90;;;;;;5009821;28;20271;-27
2023/10/01 01:15:34;;;;;;;12.13;7.63;;;12.00;99.90;;;;;;5023254;28;20189;-28
2023/10/01 01:18:07;;;;;;;12.53;7.70;;;12.00;99.90;;;;;;5009217;28;20193;-28
2023/10/01 01:20:36;;;;;;;11.67;7.73;;;11.90;99.90;;;;;;5005880;28;20192;-28
2023/10/01 01:23:06;;;;;;;12.40;8.10;;;11.80;99.90;;;;;;4994484;28;20210;-27
2023/10/01 01:25:33;;;;;;;13.87;7.60;;;11.80;99.90;;;;;;4992262;28;20279;-27
2023/10/01 01:27:59;;;;;;;12.80;7.83;;;11.70;99.90;;;;;;4993128;28;20329;-27
2023/10/01 01:30:27;;;;;;;16.57;8.27;;;11.60;99.90;;;;;;4993145;28;20312;-27
2023/10/01 01:32:53;;;;;;;11.33;7.30;;;11.50;99.90;;;;;;5009116;28;20185;-28
2023/10/01 01:35:27;;;;;;;13.37;7.93;;;11.50;99.90;;;;;;5009060;28;20178;-27
2023/10/01 01:37:58;;;;;;;12.23;7.50;;;11.40;99.90;;;;;;4992719;28;20191;-28
2023/10/01 01:40:29;;;;;;;12.73;7.63;;;11.40;99.90;;;;;;4978655;28;20287;-27
2023/10/01 01:43:02;;;;;;;12.57;8.33;;;11.40;99.90;;;;;;5008094;28;20190;-27
2023/10/01 01:45:32;;;;;;;11.20;8.17;;;11.50;99.90;;;;;;5028571;28;20323;-27
2023/10/01 01:48:00;;;;;;;11.90;7.87;;;11.50;99.90;;;;;;5022917;28;20233;-28
2023/10/01 01:50:26;;;;;;;14.63;8.57;;;11.50;99.90;;;;;;5001576;28;20192;-28
2023/10/01 01:52:56;;;;;;;11.33;7.83;;;11.50;99.90;;;;;;5001610;28;20189;-28
2023/10/01 01:55:25;;;;;;;11.07;7.47;;;11.50;99.90;;;;;;4991991;28;20185;-28
2023/10/01 01:58:08;;;;;;;11.77;7.97;;;11.50;99.90;;;;;;5006119;28;20662;-28
2023/10/01 02:00:37;;;;;;;13.23;8.10;;;11.50;99.90;;;;;;5004017;28;20196;-27
2023/10/01 02:03:14;;;;;;;12.57;7.93;;;11.60;99.90;;;;;;4977352;28;20180;-28
2023/10/01 02:05:41;;;;;;;13.03;7.70;;;11.60;99.90;;;;;;4980408;28;20212;-26
2023/10/01 02:08:09;;;;;;;12.60;7.47;;;11.50;99.90;;;;;;4996026;28;20311;-27
2023/10/01 02:10:45;;;;;;;13.73;8.33;;;11.50;99.90;;;;;;4996006;28;20196;-27
2023/10/01 02:13:13;;;;;;;11.63;7.33;;;11.50;99.90;;;;;;5006483;28;20190;-26
2023/10/01 02:15:40;;;;;;;11.80;7.53;;;11.40;99.90;;;;;;4994695;28;20195;-28
2023/10/01 02:18:08;;;;;;;14.20;8.27;;;11.40;99.90;;;;;;5015103;28;20199;-27
2023/10/01 02:20:35;;;;;;;12.57;7.60;;;11.30;99.90;;;;;;5011422;28;20182;-28
2023/10/01 02:23:04;;;;;;;11.73;7.47;;;11.30;99.90;;;;;;5027166;28;20191;-27
2023/10/01 02:25:37;;;;;;;12.17;7.67;;;11.30;99.90;;;;;;5028629;28;20256;-26
2023/10/01 02:28:13;;;;;;;9.53;6.33;;;11.30;99.90;;;;;;5026791;28;20220;-28
2023/10/01 02:30:44;;;;;;;11.37;7.17;;;11.20;99.90;;;;;;5026290;28;20207;-28
2023/10/01 02:33:17;;;;;;;10.47;7.03;;;11.20;99.90;;;;;;5023991;28;20183;-28
2023/10/01 02:35:46;;;;;;;10.70;7.07;;;11.10;99.90;;;;;;5025438;28;20190;-28
2023/10/01 02:41:02;;;;;;;12.80;7.57;;;11.10;99.90;;;;;;5018650;28;20192;-27
2023/10/01 02:43:34;;;;;;;12.07;7.17;;;11.00;99.90;;;;;;4981240;28;20667;-27
2023/10/01 02:46:04;;;;;;;12.03;7.57;;;11.00;99.90;;;;;;4979100;28;20239;-28
2023/10/01 02:48:30;;;;;;;10.27;6.90;;;10.90;99.90;;;;;;5011939;28;20686;-26
2023/10/01 02:50:56;;;;;;;10.67;7.10;;;10.80;99.90;;;;;;5024691;28;20246;-26
2023/10/01 02:53:23;;;;;;;12.47;7.50;;;10.70;99.90;;;;;;4994002;28;20192;-28
2023/10/01 02:55:52;;;;;;;13.53;7.80;;;10.60;99.90;;;;;;5026114;28;20187;-26
2023/10/01 02:58:27;;;;;;;12.97;8.13;;;10.60;99.90;;;;;;5028075;28;20306;-27
2023/10/01 03:00:54;;;;;;;11.73;8.20;;;10.70;99.90;;;;;;5018564;28;20186;-27
2023/10/01 03:03:31;;;;;;;12.63;8.03;;;10.70;99.90;;;;;;5029690;28;20188;-27
2023/10/01 03:05:58;;;;;;;11.73;7.80;;;10.80;99.90;;;;;;5029336;28;20317;-28
2023/10/01 03:11:12;;;;;;;12.53;7.63;;;10.90;99.90;;;;;;4992362;28;20211;-26
2023/10/01 03:13:40;;;;;;;15.67;7.57;;;10.90;99.90;;;;;;4997492;28;20196;-27
2023/10/01 03:18:54;;;;;;;10.90;7.27;;;10.80;99.90;;;;;;4996904;28;20213;-27
2023/10/01 03:24:08;;;;;;;11.27;7.20;;;10.70;99.90;;;;;;5011078;28;20191;-27
2023/10/01 03:26:34;;;;;;;11.67;7.60;;;10.70;99.90;;;;;;5011258;28;20294;-28
2023/10/01 03:29:21;;;;;;;11.20;7.80;;;10.60;99.90;;;;;;4995094;28;20290;-26
2023/10/01 03:31:53;;;;;;;11.60;7.27;;;10.50;99.90;;;;;;5010900;28;20192;-27
2023/10/01 03:34:28;;;;;;;12.23;7.93;;;10.50;99.90;;;;;;4993842;28;20195;-27
2023/10/01 03:36:58;;;;;;;12.47;7.57;;;10.60;99.90;;;;;;5016629;28;20209;-26
2023/10/01 03:39:28;;;;;;;10.37;7.13;;;10.60;99.90;;;;;;5022753;28;20218;-27
2023/10/01 03:42:10;;;;;;;13.10;8.17;;;10.50;99.90;;;;;;5010635;28;20188;-28
2023/10/01 03:47:23;;;;;;;16.20;8.43;;;10.50;99.90;;;;;;5006249;28;20263;-26
2023/10/01 03:49:55;;;;;;;11.57;8.03;;;10.60;99.90;;;;;;5031214;28;20233;-27
2023/10/01 03:52:21;;;;;;;12.40;8.63;;;10.60;99.90;;;;;;5028018;28;20186;-27
2023/10/01 03:55:00;;;;;;;12.67;7.90;;;10.60;99.90;;;;;;5015735;28;20217;-27
2023/10/01 03:57:29;;;;;;;12.97;8.33;;;10.60;99.90;;;;;;5020761;28;20198;-27
2023/10/01 03:59:57;;;;;;;13.97;8.30;;;10.60;99.90;;;;;;5004532;28;20207;-27
2023/10/01 04:05:30;;;;;;;12.57;8.13;;;10.60;99.90;;;;;;5029546;28;20201;-27
2023/10/01 04:08:06;;;;;;;12.97;8.53;;;10.60;99.90;;;;;;5026484;28;20206;-27
2023/10/01 04:10:34;;;;;;;12.30;7.37;;;10.50;99.90;;;;;;5015583;28;20189;-27
2023/10/01 04:13:13;;;;;;;13.60;8.23;;;10.50;99.90;;;;;;5010401;28;20183;-27
2023/10/01 04:15:55;;;;;;;13.00;8.13;;;10.50;99.90;;;;;;5003312;28;20174;-27
2023/10/01 04:18:21;;;;;;;12.87;8.13;;;10.40;99.90;;;;;;5018774;28;20203;-26
2023/10/01 04:23:32;;;;;;;13.57;8.43;;;10.50;99.90;;;;;;5024544;28;20195;-26
2023/10/01 04:26:13;;;;;;;12.93;7.83;;;10.50;99.90;;;;;;5026030;28;20190;-28
2023/10/01 04:28:54;;;;;;;12.37;7.43;;;10.50;99.90;;;;;;5022251;28;20191;-29
2023/10/01 04:34:10;;;;;;;11.47;7.47;;;10.40;99.90;;;;;;5026831;28;20193;-27
2023/10/01 04:36:42;;;;;;;12.57;7.53;;;10.30;99.90;;;;;;4988637;28;20190;-27
2023/10/01 04:39:09;;;;;;;15.70;8.23;;;10.30;99.90;;;;;;5021138;28;20221;-27
2023/10/01 04:41:35;;;;;;;10.37;7.53;;;10.20;99.90;;;;;;5012588;28;20253;-28
2023/10/01 04:44:07;;;;;;;14.87;7.40;;;10.30;99.90;;;;;;5012846;28;20187;-27
2023/10/01 04:46:37;;;;;;;10.67;7.20;;;10.20;99.90;;;;;;4987480;28;20218;-26
2023/10/01 04:49:51;;;;;;;11.83;7.27;;;10.20;99.90;;;;;;4992224;28;20276;-27
2023/10/01 04:51:50;;;;;;;11.17;6.90;;;10.20;99.90;;;;;;4980516;28;20202;-27
2023/10/01 04:54:21;;;;;;;10.97;7.27;;;10.20;99.90;;;;;;4993481;28;20179;-27
2023/10/01 04:56:48;;;;;;;11.63;7.87;;;10.30;99.90;;;;;;4991696;28;20282;-26
2023/10/01 04:59:18;;;;;;;12.03;7.27;;;10.30;99.90;;;;;;5017238;28;20209;-27
2023/10/01 05:01:47;;;;;;;12.10;7.53;;;10.20;99.90;;;;;;5027969;28;20248;-27
2023/10/01 05:04:14;;;;;;;10.53;7.27;;;10.10;99.90;;;;;;5004436;28;20182;-27
2023/10/01 05:06:59;;;;;;;15.43;7.90;;;10.10;99.90;;;;;;5024464;28;20237;-28
2023/10/01 05:09:29;;;;;;;10.47;7.30;;;10.10;99.90;;;;;;5019625;28;20195;-27
2023/10/01 05:11:55;;;;;;;12.53;7.90;;;10.10;99.90;;;;;;5011384;28;20187;-27
2023/10/01 05:14:22;;;;;;;11.60;6.83;;;10.10;99.90;;;;;;5017310;28;20183;-27
2023/10/01 05:16:54;;;;;;;13.40;7.47;;;10.10;99.90;;;;;;5023850;28;20187;-27
2023/10/01 05:19:24;;;;;;;12.93;8.10;;;10.10;99.90;;;;;;4987963;28;20199;-27
2023/10/01 05:21:52;;;;;;;12.60;7.67;;;10.10;99.90;;;;;;4980252;28;20276;-27
2023/10/01 05:24:35;;;;;;;13.47;7.90;;;10.00;99.90;;;;;;4989438;28;20210;-27
2023/10/01 05:27:02;;;;;;;8.90;6.50;;;10.00;99.90;;;;;;4990538;28;20206;-27
2023/10/01 05:29:29;;;;;;;11.90;7.50;;;10.00;99.90;;;;;;5028386;28;20309;-27
2023/10/01 05:31:56;;;;;;;10.43;7.10;;;10.00;99.90;;;;;;5022574;28;20245;-27
2023/10/01 05:34:25;;;;;;;13.47;7.93;;;10.00;99.90;;;;;;5018603;28;20245;-27
2023/10/01 05:36:52;;;;;;;11.13;7.40;;;10.00;99.90;;;;;;5005188;28;20198;-27
2023/10/01 05:39:23;;;;;;;10.93;7.27;;;10.00;99.90;;;;;;5027429;28;20222;-27
2023/10/01 05:41:57;;;;;;;10.70;7.40;;;9.90;99.90;;;;;;4978472;28;20198;-28
2023/10/01 05:44:26;;;;;;;15.10;8.53;;;9.80;99.90;;;;;;5018135;28;20193;-27
2023/10/01 05:46:53;;;;;;;11.70;7.60;;;9.80;99.90;;;;;;5006132;28;20722;-28
2023/10/01 05:49:27;;;;;;;12.83;7.47;;;9.80;99.90;;;;;;5023339;28;20249;-26
2023/10/01 05:52:01;;;;;;;12.37;7.70;;;9.90;99.90;;;;;;5022241;28;20184;-27
2023/10/01 05:54:34;;;;;;;10.90;7.70;;;10.00;99.90;;;;;;5006833;28;20191;-27
2023/10/01 05:57:02;;;;;;;11.97;7.13;;;10.00;99.90;;;;;;5022621;28;20191;-28
2023/10/01 05:59:30;;;;;;;12.90;7.40;;;10.10;99.90;;;;;;5006199;28;20222;-27
2023/10/01 06:01:57;;;;;;;10.50;7.90;;;10.20;99.90;;;;;;5011335;28;20350;-27
2023/10/01 06:04:26;;;;;;;13.37;8.47;;;10.20;99.90;;;;;;4990501;28;20180;-27
2023/10/01 06:06:52;;;;;;;14.30;8.40;;;10.30;99.90;;;;;;5000721;28;20218;-27
2023/10/01 06:09:23;;;;;;;12.00;8.33;;;10.30;99.90;;;;;;5014014;28;20195;-27
2023/10/01 06:12:03;;;;;;;12.77;8.57;;;10.40;99.90;;;;;;5020531;28;20221;-28
2023/10/01 06:14:41;;;;;;;14.17;7.57;;;10.40;99.90;;;;;;5000311;28;20262;-28
2023/10/01 06:17:10;;;;;;;14.80;8.10;;;10.40;99.90;;;;;;5024485;28;20186;-29
2023/10/01 06:19:40;;;;;;;12.10;8.13;;;10.60;99.90;;;;;;5024481;28;20428;-28
2023/10/01 06:22:16;;;;;;;13.53;8.00;;;10.60;99.90;;;;;;5024830;28;20201;-28
2023/10/01 06:24:47;;;;;;;15.47;8.07;;;10.70;99.90;;;;;;5007477;28;20220;-28
2023/10/01 06:27:18;;;;;;;12.80;8.37;;;10.70;99.90;;;;;;5027896;28;20232;-28
2023/10/01 06:29:49;;;;;;;12.63;7.90;;;10.70;99.90;;;;;;5015420;28;20234;-28
2023/10/01 06:32:20;;;;;;;13.47;8.40;;;10.80;99.90;;;;;;5006553;28;20179;-28
2023/10/01 06:34:49;;;;;;;13.43;8.17;;;10.90;99.90;;;;;;5002986;28;20180;-28
2023/10/01 06:37:15;;;;;;;12.90;7.83;;;11.00;99.90;;;;;;5017796;28;20186;-28
2023/10/01 06:39:43;;;;;;;12.20;7.97;;;11.10;99.90;;;;;;4996214;28;20307;-29
2023/10/01 06:42:18;;;;;;;13.00;8.70;;;11.20;99.90;;;;;;5025959;28;20211;-28
2023/10/01 06:44:50;;;;;;;11.83;7.70;;;11.30;99.90;;;;;;5024031;28;20179;-28
2023/10/01 06:47:17;;;;;;;13.83;7.73;;;11.50;99.90;;;;;;5025068;28;20266;-28
2023/10/01 06:49:57;;;;;;;13.50;7.97;;;11.50;99.90;;;;;;5014765;28;20207;-28
2023/10/01 06:52:28;;;;;;;10.77;6.97;;;11.60;99.90;;;;;;5011576;28;20180;-27
2023/10/01 06:54:55;;;;;;;12.43;7.50;;;11.70;99.90;;;;;;4998858;28;20264;-27
2023/10/01 06:57:23;;;;;;;12.83;7.63;;;11.70;99.90;;;;;;5031827;28;20263;-27
2023/10/01 06:59:49;;;;;;;12.93;7.93;;;11.70;99.90;;;;;;5030718;28;20220;-28
2023/10/01 07:02:16;;;;;;;11.60;7.23;;;11.80;99.90;;;;;;5031991;28;20271;-28
2023/10/01 07:04:41;;;;;;;13.90;7.70;;;11.80;99.90;;;;;;5027406;28;20220;-28
2023/10/01 07:07:20;;;;;;;12.87;7.50;;;11.90;99.90;;;;;;5022310;28;20214;-28
2023/10/01 07:09:46;;;;;;;13.90;7.93;;;12.00;99.90;;;;;;5022243;28;20233;-28
2023/10/01 07:12:17;;;;;;;15.20;8.20;;;12.00;99.90;;;;;;5024812;28;20212;-27
2023/10/01 07:14:43;;;;;;;15.80;8.70;;;12.10;99.90;;;;;;5009119;28;20654;-27
2023/10/01 07:17:14;;;;;;;12.37;7.97;;;12.20;99.90;;;;;;5029066;28;20189;-27
2023/10/01 07:19:43;;;;;;;12.67;8.30;;;12.20;99.90;;;;;;5023894;28;20213;-27
2023/10/01 07:22:15;;;;;;;12.73;7.90;;;12.30;99.90;;;;;;5025879;28;20194;-27
2023/10/01 07:24:44;;;;;;;13.00;7.70;;;12.50;99.90;;;;;;5020993;28;20194;-28
2023/10/01 07:27:12;;;;;;;11.73;7.57;;;12.50;99.90;;;;;;5014013;28;20309;-28
2023/10/01 07:29:42;;;;;;;12.53;7.63;;;12.70;99.90;;;;;;5012599;28;20286;-27
2023/10/01 07:32:13;;;;;;;12.10;8.07;;;12.70;99.90;;;;;;5031160;28;20182;-28
2023/10/01 07:34:52;;;;;;;14.53;8.57;;;12.90;99.90;;;;;;4991293;28;20209;-30
2023/10/01 07:37:25;;;;;;;10.90;8.10;;;12.90;99.90;;;;;;4995277;28;20203;-28
2023/10/01 07:39:55;;;;;;;13.60;8.20;;;13.10;99.90;;;;;;4995153;28;20223;-28
2023/10/01 07:42:25;;;;;;;10.73;7.93;;;13.20;99.90;;;;;;5002750;28;20183;-28
2023/10/01 07:44:53;;;;;;;14.90;8.40;;;13.30;99.90;;;;;;4993994;28;20187;-28
2023/10/01 07:47:28;;;;;;;15.10;8.63;;;13.40;99.90;;;;;;4994899;28;20254;-27
2023/10/01 07:49:56;;;;;;;15.10;9.17;;;13.50;99.90;;;;;;4990614;28;20207;-27
2023/10/01 07:52:23;;;;;;;14.07;8.73;;;13.50;99.90;;;;;;5016135;28;20183;-27
2023/10/01 07:54:49;;;;;;;13.23;8.13;;;13.60;99.90;;;;;;4984543;28;20697;-28
2023/10/01 07:57:27;;;;;;;13.23;8.30;;;13.80;99.90;;;;;;5017821;28;20179;-27
2023/10/01 08:00:00;;;;;;;14.20;8.40;;;13.90;99.90;;;;;;5017558;28;20203;-28
2023/10/01 08:02:28;;;;;;;14.33;8.73;;;14.00;99.90;;;;;;5018994;28;20183;-27
2023/10/01 08:04:58;;;;;;;15.93;9.30;;;14.10;99.90;;;;;;5016730;28;20187;-27
2023/10/01 08:07:45;;;;;;;14.97;9.17;;;14.20;99.90;;;;;;4984931;28;20206;-27
2023/10/01 08:10:17;;;;;;;14.30;8.90;;;14.30;99.90;;;;;;5020502;28;20179;-28
2023/10/01 08:15:38;;;;;;;13.20;8.70;;;14.50;99.90;;;;;;5018321;28;20186;-29
2023/10/01 08:20:58;;;;;;;12.43;8.33;;;14.80;99.90;;;;;;5022289;28;20225;-27
2023/10/01 08:23:26;;;;;;;14.43;8.80;;;14.90;99.90;;;;;;5022347;28;20316;-27
2023/10/01 08:25:55;;;;;;;14.83;8.93;;;15.00;99.90;;;;;;5013932;28;20184;-28
2023/10/01 08:31:01;;;;;;;12.93;7.63;;;15.30;99.90;;;;;;5009965;28;20274;-28
2023/10/01 08:33:42;;;;;;;14.80;8.90;;;15.40;99.90;;;;;;5010170;28;20167;-27
2023/10/01 08:36:14;;;;;;;12.50;7.90;;;15.50;99.90;;;;;;4992262;28;20183;-27
2023/10/01 08:39:19;;;;;;;13.40;8.07;;;15.60;99.90;;;;;;5019896;28;20298;-27
2023/10/01 08:41:52;;;;;;;13.63;8.30;;;15.80;99.90;;;;;;4995269;28;20187;-27
2023/10/01 08:44:36;;;;;;;13.93;8.40;;;16.00;99.90;;;;;;4994240;28;20175;-27
2023/10/01 08:47:21;;;;;;;14.30;9.23;;;16.20;99.90;;;;;;5014125;28;20214;-28
2023/10/01 08:49:51;;;;;;;12.87;8.07;;;16.30;99.90;;;;;;4998019;28;20201;-28
2023/10/01 08:52:26;;;;;;;13.23;8.43;;;16.40;99.90;;;;;;4995584;28;20248;-27
2023/10/01 08:54:56;;;;;;;15.03;8.07;;;16.50;99.90;;;;;;5012216;28;20210;-30
2023/10/01 08:57:45;;;;;;;12.67;8.53;;;16.60;99.90;;;;;;5010354;28;20185;-28
2023/10/01 09:00:20;;;;;;;12.27;7.83;;;16.60;99.90;;;;;;5013745;28;20215;-27
2023/10/01 09:03:10;;;;;;;17.60;8.57;;;16.80;99.90;;;;;;5009645;28;20210;-28
2023/10/01 09:05:42;;;;;;;14.38;8.07;;;16.90;99.90;;;;;;5004775;28;20183;-28
2023/10/01 09:08:42;;;;;;;14.43;8.55;;;17.00;99.90;;;;;;5010070;28;20218;-29
2023/10/01 09:11:14;;;;;;;13.85;8.05;;;17.10;99.90;;;;;;4988955;28;20664;-27
2023/10/01 09:16:42;;;;;;;13.40;7.68;;;17.40;99.90;;;;;;5009362;28;20191;-27
2023/10/01 09:19:32;;;;;;;13.65;8.18;;;17.40;99.90;;;;;;5008202;28;20218;-27
2023/10/01 09:22:15;;;;;;;14.02;7.65;;;17.50;99.90;;;;;;5011099;28;20195;-28
2023/10/01 09:24:43;;;;;;;12.68;7.55;;;17.60;99.90;;;;;;5006619;28;20515;-27
2023/10/01 09:27:19;;;;;;;13.13;7.38;;;17.70;99.90;;;;;;4977876;28;20198;-28
2023/10/01 09:29:48;;;;;;;12.48;7.72;;;17.90;99.90;;;;;;4993065;28;20195;-28
2023/10/01 09:32:14;;;;;;;11.10;6.55;;;18.00;99.90;;;;;;4990094;28;20198;-28
2023/10/01 09:34:47;;;;;;;14.35;8.18;;;18.20;99.90;;;;;;4988133;28;20233;-28
2023/10/01 09:37:52;;;;;;;13.80;7.55;;;18.40;99.90;;;;;;5000407;28;20195;-29
2023/10/01 09:43:03;;;;;;;12.85;6.97;;;18.60;99.90;;;;;;5024581;28;20214;-28
2023/10/01 09:45:41;;;;;;;12.52;7.30;;;18.70;99.90;;;;;;5014111;28;20160;-27
2023/10/01 09:48:09;;;;;;;12.40;7.63;;;18.80;99.90;;;;;;5023095;28;20190;-28
2023/10/01 09:50:44;;;;;;;13.82;7.40;;;18.90;99.90;;;;;;5024550;28;20183;-29
2023/10/01 09:53:55;;;;;;;12.50;7.45;;;19.00;99.90;;;;;;5005171;28;20159;-28
2023/10/01 09:56:27;;;;;;;12.30;7.28;;;19.20;99.90;;;;;;4987303;28;20206;-28
2023/10/01 09:59:03;;;;;;;12.57;6.55;;;19.40;99.90;;;;;;5024004;28;20191;-29
2023/10/01 10:01:36;;;;;;;11.25;6.72;;;19.50;99.90;;;;;;5009739;28;20187;-28
2023/10/01 10:04:04;;;;;;;10.90;6.78;;;19.60;99.90;;;;;;5010795;28;20188;-28
2023/10/01 10:06:32;;;;;;;13.63;7.00;;;19.70;99.90;;;;;;5015513;28;20206;-29
2023/10/01 10:09:05;;;;;;;12.48;7.07;;;19.90;99.90;;;;;;5008579;28;20233;-29
2023/10/01 10:11:43;;;;;;;10.57;6.45;;;20.00;99.90;;;;;;4984527;28;20183;-29
2023/10/01 10:14:27;;;;;;;12.77;7.15;;;20.20;99.90;;;;;;4979740;28;20267;-29
2023/10/01 10:17:25;;;;;;;13.38;7.72;;;20.30;99.90;;;;;;4998217;28;20278;-28
2023/10/01 10:23:14;;;;;;;13.00;6.95;;;20.40;99.90;;;;;;5022167;28;20187;-29
2023/10/01 10:25:46;;;;;;;12.65;7.82;;;20.50;99.90;;;;;;5020168;28;20180;-29
2023/10/01 10:28:25;;;;;;;12.07;6.95;;;20.50;99.90;;;;;;5018945;28;20262;-29
2023/10/01 10:31:29;;;;;;;13.52;7.20;;;20.70;99.90;;;;;;5009510;28;20182;-28
2023/10/01 10:34:26;;;;;;;13.57;7.10;;;20.70;99.90;;;;;;5025983;28;20194;-29
2023/10/01 10:36:59;;;;;;;13.60;7.85;;;20.80;99.90;;;;;;5012345;28;20222;-29
2023/10/01 10:39:50;;;;;;;11.20;7.30;;;20.90;99.90;;;;;;5003136;28;20211;-29
2023/10/01 10:42:29;;;;;;;13.13;7.57;;;21.00;99.90;;;;;;5002545;28;20175;-29
2023/10/01 10:45:19;;;;;;;13.35;7.13;;;21.30;99.90;;;;;;5012156;28;20189;-29
2023/10/01 10:48:02;;;;;;;13.43;7.50;;;21.30;99.90;;;;;;5012062;28;20291;-29
2023/10/01 10:50:56;;;;;;;11.73;7.55;;;21.40;99.90;;;;;;5017333;28;20180;-28
2023/10/01 10:53:43;;;;;;;13.02;7.05;;;21.60;99.90;;;;;;5046539;28;20180;-28
2023/10/01 10:56:17;;;;;;;13.05;7.70;;;21.80;99.90;;;;;;5036364;28;20309;-29
2023/10/01 10:58:53;;;;;;;13.27;7.47;;;22.00;99.90;;;;;;5012725;28;20207;-29
2023/10/01 11:01:24;;;;;;;13.05;7.80;;;22.00;99.90;;;;;;5030622;28;20190;-29
2023/10/01 11:04:07;;;;;;;13.88;7.72;;;22.20;99.90;;;;;;4996284;28;20350;-29
2023/10/01 11:07:01;;;;;;;14.73;7.35;;;22.40;99.90;;;;;;5009620;28;20206;-30
2023/10/01 11:09:43;;;;;;;11.65;7.20;;;22.60;99.90;;;;;;5031626;28;20222;-29
2023/10/01 11:12:21;;;;;;;14.48;7.97;;;22.70;99.90;;;;;;5020283;28;20279;-28
2023/10/01 11:15:23;;;;;;;12.73;7.57;;;22.60;99.90;;;;;;4995565;28;20183;-28
2023/10/01 11:18:01;;;;;;;12.38;7.07;;;22.60;99.90;;;;;;5009271;28;20196;-29
2023/10/01 11:20:33;;;;;;;12.80;7.80;;;22.70;99.90;;;;;;5012783;28;20246;-28
2023/10/01 11:22:59;;;;;;;12.45;7.78;;;22.90;99.90;;;;;;5020254;28;20184;-29
2023/10/01 11:25:25;;;;;;;13.00;7.47;;;23.00;99.90;;;;;;5025292;28;20179;-29
2023/10/01 11:28:06;;;;;;;13.95;7.18;;;23.10;99.90;;;;;;5014726;28;20210;-29
2023/10/01 11:30:34;;;;;;;12.60;7.68;;;23.20;99.90;;;;;;5025364;28;20220;-28
2023/10/01 11:33:02;;;;;;;12.07;7.50;;;23.10;99.90;;;;;;5030188;28;20182;-29
2023/10/01 11:35:31;;;;;;;13.90;8.20;;;23.20;99.90;;;;;;4995263;28;20237;-29
2023/10/01 11:38:07;;;;;;;14.05;8.40;;;23.30;99.90;;;;;;5012806;28;20311;-29
2023/10/01 11:43:32;;;;;;;12.88;7.30;;;23.30;99.90;;;;;;4996492;28;20203;-29
2023/10/01 11:46:23;;;;;;;13.90;7.80;;;23.40;99.90;;;;;;4986400;28;20179;-29
2023/10/01 11:49:02;;;;;;;12.48;7.60;;;23.50;99.90;;;;;;5011542;28;20206;-29
2023/10/01 11:51:50;;;;;;;11.90;7.93;;;23.40;99.90;;;;;;4988759;28;20183;-29
2023/10/01 11:54:24;;;;;;;15.63;7.70;;;23.50;99.90;;;;;;4980620;28;20179;-29
2023/10/01 11:57:08;;;;;;;13.77;7.15;;;23.60;99.90;;;;;;5006208;28;20187;-29
2023/10/01 11:59:42;;;;;;;12.25;7.20;;;23.60;99.90;;;;;;4995285;28;20203;-29
2023/10/01 12:02:20;;;;;;;12.55;7.50;;;23.90;99.90;;;;;;4979010;28;20213;-29
2023/10/01 12:04:59;;;;;;;12.50;7.28;;;24.00;99.90;;;;;;5010686;28;20191;-29
2023/10/01 12:07:40;;;;;;;13.43;7.30;;;24.10;99.90;;;;;;5009246;28;20202;-29
2023/10/01 12:10:24;;;;;;;13.65;7.13;;;24.10;99.90;;;;;;5010097;28;20203;-30
2023/10/01 12:12:51;;;;;;;12.50;7.38;;;24.30;99.90;;;;;;5017895;28;20238;-31
2023/10/01 12:15:35;;;;;;;12.65;7.40;;;24.40;99.90;;;;;;4991566;28;20175;-30
2023/10/01 12:18:13;;;;;;;15.55;8.25;;;24.60;99.90;;;;;;5010784;28;20186;-30
2023/10/01 12:20:47;;;;;;;12.85;8.27;;;24.80;99.90;;;;;;5008129;28;20187;-30
2023/10/01 12:23:14;;;;;;;13.75;8.20;;;24.80;99.90;;;;;;5015222;28;20191;-29
2023/10/01 12:28:23;;;;;;;11.25;6.70;;;24.90;99.90;;;;;;4999886;28;20215;-29
2023/10/01 12:31:23;;;;;;;13.25;7.53;;;24.90;99.90;;;;;;4993312;28;20226;-30
2023/10/01 12:33:46;;;;;;;11.68;7.60;;;24.90;99.90;;;;;;4987810;28;20199;-29
2023/10/01 12:36:42;;;;;;;12.75;7.93;;;25.10;99.90;;;;;;5010012;28;20278;-28
2023/10/01 13:17:23;;;;;;;11.65;7.82;;;26.80;99.90;;;;;;5047999;28;20294;-86
2023/10/01 13:19:49;;;;;;;11.80;7.10;;;26.90;99.90;;;;;;5037176;28;20184;-85
2023/10/01 13:22:18;;;;;;;13.15;7.85;;;27.00;99.90;;;;;;5017243;28;20213;-87
2023/10/01 13:24:54;;;;;;;10.50;7.30;;;27.00;99.90;;;;;;5022008;28;20186;-87
2023/10/01 13:27:28;;;;;;;11.20;6.88;;;27.00;99.90;;;;;;5015849;28;20206;-93
2023/10/01 13:30:18;;;;;;;14.20;7.47;;;27.10;99.90;;;;;;5040544;28;20193;-94
2023/10/01 13:33:10;;;;;;;10.15;7.03;;;27.10;99.90;;;;;;5047268;28;20182;-93
2023/10/01 13:35:50;;;;;;;10.57;6.85;;;27.20;99.90;;;;;;5050697;28;20174;-94
2023/10/01 14:11:08;;;;;;;10.32;6.90;;;27.80;99.90;;;;;;5031685;28;20190;-38
2023/10/01 14:13:37;;;;;;;10.75;6.80;;;28.10;99.90;;;;;;5029362;28;20201;-40
2023/10/01 14:16:23;;;;;;;9.65;6.25;;;28.30;99.90;;;;;;5021022;28;20280;-40
2023/10/01 14:18:55;;;;;;;10.63;6.50;;;28.40;99.90;;;;;;5034829;28;20178;-40
2023/10/01 14:21:26;;;;;;;9.65;6.28;;;28.40;99.90;;;;;;5035493;28;20185;-40
2023/10/01 14:23:57;;;;;;;10.57;6.72;;;28.30;99.90;;;;;;5035827;28;20201;-41
2023/10/01 14:26:35;;;;;;;11.65;6.63;;;28.10;99.90;;;;;;5037113;28;20261;-41
2023/10/01 14:29:05;;;;;;;11.23;6.90;;;28.20;99.90;;;;;;5026708;28;20187;-40
2023/10/01 14:31:49;;;;;;;10.93;6.60;;;28.10;99.90;;;;;;5020194;28;20178;-39
2023/10/01 14:34:18;;;;;;;11.40;6.82;;;28.00;99.90;;;;;;5036927;28;20239;-40
2023/10/01 14:36:44;;;;;;;10.73;6.10;;;27.80;99.90;;;;;;5027678;28;20185;-40
2023/10/01 14:39:14;;;;;;;9.40;6.95;;;27.90;99.90;;;;;;5054206;28;20174;-39
2023/10/01 14:41:45;;;;;;;9.20;6.20;;;27.90;99.90;;;;;;5025353;28;20175;-40
2023/10/01 14:44:13;;;;;;;9.82;6.45;;;27.90;99.90;;;;;;5019831;28;20190;-40
2023/10/01 14:46:43;;;;;;;10.55;6.35;;;28.00;99.90;;;;;;5034206;28;20306;-40
2023/10/01 14:49:10;;;;;;;10.07;6.68;;;28.10;99.90;;;;;;5027030;28;20188;-40
2023/10/01 14:51:48;;;;;;;10.20;6.70;;;27.90;99.90;;;;;;5058214;28;20185;-40
2023/10/01 14:54:18;;;;;;;8.70;6.30;;;27.80;99.90;;;;;;5035788;28;20188;-40
2023/10/01 14:56:54;;;;;;;9.88;6.75;;;27.90;99.90;;;;;;5034028;28;20185;-40
2023/10/01 14:59:23;;;;;;;9.98;6.38;;;27.90;99.90;;;;;;5021062;28;20192;-38
2023/10/01 15:01:50;;;;;;;8.65;6.50;;;27.90;99.90;;;;;;5019499;28;20300;-40
2023/10/01 15:04:20;;;;;;;9.07;6.03;;;27.80;99.90;;;;;;5011288;28;20222;-40
2023/10/01 15:07:05;;;;;;;11.02;6.45;;;27.80;99.90;;;;;;5020922;28;20280;-40